Aérodrome :
LOGIN :

S'inscrire | Disclaimer

   EN    FR    IT 

 










Légende :    VFR   VFR Marginal   IFR   IFR Intensif   IFR Très Intensif
Visi : 
Plafond : 
>= 8 km
>= 3000ft
5 à 8 km
1000 à 3000 ft
1500m à 5 km
500 à 1000 ft
800 à 1500m
200 à 500 ft
< 800m
< 200 ft
Symboles :   Orages  Brouillard  Fortes neiges  Fortes précipitations  Vent > 20 kt
SIGMETs :   Divers  Orages  Givrage  Turbulence  Onde Orograph.  Cendres Volcan.







- Altitude de l'aérodrome : 1649 ft
- Code IATA : HHN


EDFH - Frankfurt-Hahn Rhineland-Palatinate

DERNIER METAR :
  • 180050Z 22011KT 4000 -SN BKN018 M01/M02 Q1020

METARs EXPIRÉS :
  • 180020Z 22010KT 190V260 8000 -SN BKN018 M01/M02 Q1020
  • 172350Z 22011KT 200V260 9999 -SN BKN010 M01/M02 Q1021
  • 172320Z 22010KT 9999 BKN010 M01/M02 Q1022
  • 172250Z 23007KT 9999 BKN008 M01/M01 Q1022
  • 172220Z 23007KT 200V260 9999 BKN006 M01/M01 Q1022

TAF TAF EDFH
Valide du 18 à 00h jusqu'au 19 à 00h UTC


172300Z 1800/1824 26010KT 9999 SCT004 BKN015
BECMG 1800/1802 4000 -SN BKN006
TEMPO 1801/1809 2000 SN OVC004
PROB30
TEMPO 1802/1806 0500 +SN VV001
TEMPO 1809/1824 2000 -RASN BR BKN003
BECMG 1812/1815 34004KT
Pas de NOTAMs connus pour ce terrain.
2 SIGMETs publiés pour la FIR Langen (EDGG) :
 
Givrage fort
EDGG SIGMET 2 VALID 180000/180300 EDZF
EDGG LANGEN FIR SEV ICE FCST NW OF LINE N4915 E00730 - N5120 E00850 1000FT/FL130 MOV SE NC=
Orages noyés dans la masse
EDGG SIGMET 1 VALID 172335/180100 EDZF
EDGG LANGEN FIR EMBD TS OBS N OF N5130 AND W OF E00800 TOP FL200 MOV SE WKN=



MET'MAP, la Météo Aéronautique d'un coup d'oeil ! - Copyright ORBIFLY Décembre 2007 - Disclaimer

ORBIFLY MET'MAP TEAM :

Programmation & Développement : Alexandra Zaïnal
Conception & Développement : Baudouin d'Aumeries
Co-Programmation & Développement : Marc-Olivier Méhu
Soutien technique & logistique : Manuel Goepfert

Contact : metmap@orbifly.com




SOURCES & CREDITS :

   NOAA